createdAt,value
2023-05-20T00:01:52.989Z,6.25
2023-05-20T00:04:19.678Z,7.03
2023-05-20T00:06:46.424Z,6.85
2023-05-20T00:09:13.163Z,7.57
2023-05-20T00:11:39.924Z,7.32
2023-05-20T00:14:06.638Z,6.85
2023-05-20T00:16:33.380Z,6.85
2023-05-20T00:19:00.312Z,7.05
2023-05-20T00:21:27.001Z,6.43
2023-05-20T00:23:53.756Z,6.78
2023-05-20T00:26:21.430Z,6.47
2023-05-20T00:28:53.727Z,6.72
2023-05-20T00:31:20.485Z,6.90
2023-05-20T00:33:47.225Z,7.00
2023-05-20T00:36:14.088Z,6.43
2023-05-20T00:38:40.863Z,7.30
2023-05-20T00:41:07.691Z,7.15
2023-05-20T00:43:34.357Z,7.05
2023-05-20T00:46:01.874Z,6.47
2023-05-20T00:48:39.938Z,7.35
2023-05-20T00:51:07.721Z,7.28
2023-05-20T00:53:35.471Z,7.28
2023-05-20T00:56:03.848Z,7.00
2023-05-20T00:58:31.518Z,6.65
2023-05-20T01:00:58.501Z,6.53
2023-05-20T01:03:25.648Z,7.05
2023-05-20T01:05:52.592Z,6.63
2023-05-20T01:08:19.362Z,6.07
2023-05-20T01:10:47.605Z,6.63
2023-05-20T01:13:20.050Z,7.13
2023-05-20T01:15:49.052Z,6.40
2023-05-20T01:18:18.323Z,5.93
2023-05-20T01:20:49.682Z,6.85
2023-05-20T01:23:17.178Z,6.55
2023-05-20T01:25:43.924Z,6.15
2023-05-20T01:28:17.648Z,6.78
2023-05-20T01:30:51.103Z,6.80
2023-05-20T01:33:21.940Z,6.43
2023-05-20T01:35:48.939Z,6.55
2023-05-20T01:38:19.564Z,6.40
2023-05-20T01:40:47.848Z,6.78
2023-05-20T01:43:17.406Z,5.97
2023-05-20T01:45:45.126Z,6.68
2023-05-20T01:48:12.391Z,6.57
2023-05-20T01:50:39.655Z,5.75
2023-05-20T01:53:09.524Z,5.68
2023-05-20T01:55:36.427Z,5.93
2023-05-20T01:58:03.523Z,6.68
2023-05-20T02:00:32.105Z,6.07
2023-05-20T02:02:59.570Z,6.00
2023-05-20T02:05:26.317Z,6.30
2023-05-20T02:07:52.989Z,6.40
2023-05-20T02:10:20.756Z,5.97
2023-05-20T02:12:49.288Z,6.18
2023-05-20T02:15:16.357Z,5.78
2023-05-20T02:17:43.764Z,6.50
2023-05-20T02:20:11.759Z,6.45
2023-05-20T02:22:38.494Z,6.60
2023-05-20T02:25:05.788Z,6.90
2023-05-20T02:27:32.534Z,5.88
2023-05-20T02:30:00.291Z,6.82
2023-05-20T02:32:28.837Z,6.80
2023-05-20T02:34:55.995Z,6.45
2023-05-20T02:37:22.717Z,6.07
2023-05-20T02:39:49.571Z,6.25
2023-05-20T02:42:16.332Z,6.43
2023-05-20T02:44:43.438Z,6.63
2023-05-20T02:47:10.655Z,6.93
2023-05-20T02:49:37.360Z,6.78
2023-05-20T02:52:04.408Z,6.65
2023-05-20T02:54:31.144Z,6.88
2023-05-20T02:56:58.162Z,6.43
2023-05-20T02:59:24.823Z,6.50
2023-05-20T03:01:51.842Z,6.65
2023-05-20T03:04:19.329Z,6.30
2023-05-20T03:06:46.587Z,7.38
2023-05-20T03:09:15.540Z,6.50
2023-05-20T03:11:42.250Z,7.25
2023-05-20T03:14:09.434Z,6.63
2023-05-20T03:16:36.199Z,6.85
2023-05-20T03:19:02.959Z,7.60
2023-05-20T03:21:29.713Z,7.78
2023-05-20T03:23:56.474Z,7.65
2023-05-20T03:26:23.334Z,6.80
2023-05-20T03:28:50.728Z,6.95
2023-05-20T03:31:17.730Z,7.75
2023-05-20T03:33:46.131Z,7.47
2023-05-20T03:36:12.961Z,6.82
2023-05-20T03:38:39.772Z,7.03
2023-05-20T03:41:06.556Z,6.88
2023-05-20T03:43:33.741Z,6.93
2023-05-20T03:46:00.995Z,6.68
2023-05-20T03:48:28.727Z,6.85
2023-05-20T03:50:55.513Z,7.50
2023-05-20T03:53:22.574Z,7.32
2023-05-20T03:55:49.306Z,6.68
2023-05-20T03:58:16.642Z,7.35
2023-05-20T04:00:43.746Z,7.15
2023-05-20T04:03:10.667Z,7.07
2023-05-20T04:05:37.507Z,7.13
2023-05-20T04:08:09.944Z,6.88
2023-05-20T04:10:36.946Z,7.40
2023-05-20T04:13:04.294Z,7.22
2023-05-20T04:15:30.988Z,7.63
2023-05-20T04:17:58.974Z,7.40
2023-05-20T04:20:25.730Z,7.63
2023-05-20T04:22:55.372Z,7.28
2023-05-20T04:25:22.455Z,6.65
2023-05-20T04:27:49.838Z,7.55
2023-05-20T04:30:19.935Z,7.75
2023-05-20T04:32:48.386Z,7.43
2023-05-20T04:35:15.106Z,8.35
2023-05-20T04:37:47.663Z,7.30
2023-05-20T04:40:14.670Z,6.90
2023-05-20T04:42:43.489Z,8.48
2023-05-20T04:45:11.061Z,7.47
2023-05-20T04:47:39.318Z,7.45
2023-05-20T04:50:10.844Z,8.23
2023-05-20T04:52:45.990Z,7.38
2023-05-20T04:55:13.613Z,7.50
2023-05-20T04:57:42.009Z,7.45
2023-05-20T05:00:10.810Z,7.70
2023-05-20T05:02:38.225Z,7.00
2023-05-20T05:05:05.762Z,8.07
2023-05-20T05:07:32.544Z,8.20
2023-05-20T05:09:59.354Z,8.65
2023-05-20T05:12:27.992Z,8.45
2023-05-20T05:14:54.680Z,7.82
2023-05-20T05:17:22.622Z,8.40
2023-05-20T05:19:49.502Z,8.10
2023-05-20T05:22:16.459Z,8.15
2023-05-20T05:24:43.313Z,8.98
2023-05-20T05:27:09.984Z,8.30
2023-05-20T05:29:36.674Z,7.78
2023-05-20T05:32:03.879Z,8.07
2023-05-20T05:34:30.702Z,8.02
2023-05-20T05:36:57.539Z,8.80
2023-05-20T05:39:24.569Z,8.18
2023-05-20T05:41:54.125Z,8.00
2023-05-20T05:44:21.080Z,7.95
2023-05-20T05:46:48.438Z,8.65
2023-05-20T05:49:15.211Z,7.95
2023-05-20T05:51:41.887Z,7.75
2023-05-20T05:54:08.659Z,8.02
2023-05-20T05:56:35.260Z,8.50
2023-05-20T05:59:02.068Z,9.30
2023-05-20T06:01:30.026Z,9.20
2023-05-20T06:03:56.766Z,8.75
2023-05-20T06:06:23.502Z,7.72
2023-05-20T06:08:50.174Z,8.63
2023-05-20T06:11:16.807Z,8.15
2023-05-20T06:13:43.482Z,8.32
2023-05-20T06:16:10.262Z,8.27
2023-05-20T06:18:38.213Z,8.38
2023-05-20T06:21:06.165Z,8.10
2023-05-20T06:23:33.122Z,9.27
2023-05-20T06:26:03.702Z,8.13
2023-05-20T06:28:30.882Z,8.60
2023-05-20T06:30:57.686Z,8.40
2023-05-20T06:33:27.574Z,8.18
2023-05-20T06:35:58.691Z,7.97
2023-05-20T06:38:25.504Z,7.70
2023-05-20T06:40:52.233Z,8.75
2023-05-20T06:43:19.235Z,8.80
2023-05-20T06:46:24.239Z,8.23
2023-05-20T06:48:55.511Z,9.10
2023-05-20T06:51:22.383Z,8.10
2023-05-20T06:53:50.039Z,8.25
2023-05-20T06:56:16.798Z,9.25
2023-05-20T06:58:43.959Z,8.65
2023-05-20T07:01:11.003Z,8.82
2023-05-20T07:03:38.443Z,8.70
2023-05-20T07:06:05.691Z,8.70
2023-05-20T07:08:32.410Z,8.35
2023-05-20T07:10:59.373Z,9.15
2023-05-20T07:13:26.210Z,8.40
2023-05-20T07:15:53.331Z,8.30
2023-05-20T07:18:20.252Z,8.40
2023-05-20T07:20:52.119Z,8.73
2023-05-20T07:23:37.489Z,8.45
2023-05-20T07:26:04.340Z,8.82
2023-05-20T07:28:31.420Z,8.52
2023-05-20T07:31:00.246Z,8.52
2023-05-20T07:33:29.927Z,8.65
2023-05-20T07:35:57.022Z,8.75
2023-05-20T07:38:24.133Z,9.10
2023-05-20T07:40:56.729Z,8.15
2023-05-20T07:43:24.123Z,8.60
2023-05-20T07:45:50.911Z,8.75
2023-05-20T07:48:17.649Z,8.63
2023-05-20T07:50:44.575Z,8.60
2023-05-20T07:53:12.067Z,8.25
2023-05-20T07:55:39.590Z,8.82
2023-05-20T07:58:06.853Z,8.65
2023-05-20T08:00:35.831Z,7.72
2023-05-20T08:03:07.935Z,8.35
2023-05-20T08:06:01.203Z,7.38
2023-05-20T08:08:30.519Z,8.88
2023-05-20T08:11:04.079Z,8.88
2023-05-20T08:13:31.775Z,8.20
2023-05-20T08:15:59.742Z,8.00
2023-05-20T08:18:27.905Z,8.55
2023-05-20T08:20:54.610Z,7.85
2023-05-20T08:23:21.628Z,8.30
2023-05-20T08:25:49.277Z,8.70
2023-05-20T08:28:18.251Z,8.07
2023-05-20T08:30:45.392Z,8.20
2023-05-20T08:33:13.140Z,7.68
2023-05-20T08:35:40.747Z,8.82
2023-05-20T08:38:08.723Z,7.65
2023-05-20T08:40:35.678Z,7.72
2023-05-20T08:43:02.913Z,8.05
2023-05-20T08:45:32.990Z,8.75
2023-05-20T08:48:05.491Z,8.15
2023-05-20T08:50:32.640Z,7.70
2023-05-20T08:52:59.908Z,7.35
2023-05-20T08:55:55.524Z,8.02
2023-05-20T08:58:23.312Z,7.85
2023-05-20T09:00:51.283Z,7.85
2023-05-20T09:03:18.671Z,7.43
2023-05-20T09:05:45.280Z,6.57
2023-05-20T09:08:12.760Z,6.63
2023-05-20T09:10:41.675Z,7.25
2023-05-20T09:13:10.790Z,7.13
2023-05-20T09:15:37.878Z,7.38
2023-05-20T09:18:08.828Z,6.70
2023-05-20T09:20:41.148Z,6.90
2023-05-20T09:23:09.832Z,7.55
2023-05-20T09:25:37.859Z,6.95
2023-05-20T09:28:08.757Z,6.95
2023-05-20T09:30:35.696Z,6.78
2023-05-20T09:33:05.282Z,7.13
2023-05-20T09:35:37.696Z,6.68
2023-05-20T09:38:09.412Z,7.25
2023-05-20T09:40:40.385Z,6.53
2023-05-20T09:43:08.021Z,6.72
2023-05-20T09:45:35.253Z,6.63
2023-05-20T09:48:03.182Z,6.80
2023-05-20T09:50:31.653Z,7.18
2023-05-20T09:53:03.335Z,6.28
2023-05-20T09:55:31.006Z,6.30
2023-05-20T09:58:02.077Z,5.85
2023-05-20T10:00:28.950Z,5.40
2023-05-20T10:02:56.355Z,5.72
2023-05-20T10:05:27.696Z,6.00
2023-05-20T10:08:23.382Z,5.13
2023-05-20T10:11:20.197Z,5.80
2023-05-20T10:14:22.190Z,5.35
2023-05-20T10:17:07.914Z,5.97
2023-05-20T10:19:34.888Z,5.10
2023-05-20T10:22:04.478Z,5.60
2023-05-20T10:24:32.511Z,5.20
2023-05-20T10:27:01.431Z,5.28
2023-05-20T10:29:28.501Z,5.28
2023-05-20T10:31:55.799Z,5.10
2023-05-20T10:34:23.255Z,5.05
2023-05-20T10:36:56.781Z,5.07
2023-05-20T10:39:28.687Z,5.03
2023-05-20T10:42:11.557Z,5.75
2023-05-20T10:44:45.719Z,4.93
2023-05-20T10:49:47.358Z,4.65
2023-05-20T10:52:14.806Z,5.10
2023-05-20T10:54:56.217Z,4.80
2023-05-20T10:57:24.758Z,5.13
2023-05-20T10:59:51.691Z,5.05
2023-05-20T11:02:26.470Z,4.45
2023-05-20T11:04:53.559Z,5.07
2023-05-20T11:07:30.517Z,4.43
2023-05-20T11:09:58.714Z,5.22
2023-05-20T11:12:26.476Z,5.30
2023-05-20T11:14:53.703Z,5.68
2023-05-20T11:17:20.796Z,4.95
2023-05-20T11:19:48.421Z,5.40
2023-05-20T11:22:15.323Z,5.32
2023-05-20T11:24:42.045Z,5.18
2023-05-20T11:27:09.303Z,4.75
2023-05-20T11:29:36.163Z,4.90
2023-05-20T11:32:03.048Z,5.00
2023-05-20T11:34:37.429Z,4.78
2023-05-20T11:37:09.005Z,4.63
2023-05-20T11:39:37.654Z,4.82
2023-05-20T11:42:06.140Z,4.60
2023-05-20T11:44:32.936Z,4.75
2023-05-20T11:47:01.577Z,3.92
2023-05-20T11:49:30.659Z,4.40
2023-05-20T11:51:57.673Z,4.70
2023-05-20T11:54:24.861Z,4.53
2023-05-20T11:56:54.366Z,4.15
2023-05-20T11:59:24.309Z,4.20
2023-05-20T12:01:51.051Z,4.25
2023-05-20T12:04:18.543Z,5.20
2023-05-20T12:06:45.796Z,4.30
2023-05-20T12:09:14.144Z,4.57
2023-05-20T12:11:41.934Z,4.28
2023-05-20T12:14:09.082Z,4.40
2023-05-20T12:16:36.793Z,5.05
2023-05-20T12:19:03.948Z,4.63
2023-05-20T12:21:31.420Z,4.53
2023-05-20T12:24:01.134Z,3.97
2023-05-20T12:26:29.037Z,4.15
2023-05-20T12:28:56.325Z,4.22
2023-05-20T12:31:23.373Z,4.60
2023-05-20T12:33:50.183Z,4.65
2023-05-20T12:36:17.038Z,4.40
2023-05-20T12:38:43.716Z,4.30
2023-05-20T12:41:10.679Z,4.55
2023-05-20T12:43:37.829Z,4.53
2023-05-20T12:46:05.180Z,4.28
2023-05-20T12:48:32.042Z,4.78
2023-05-20T12:50:58.698Z,4.07
2023-05-20T12:53:25.512Z,4.57
2023-05-20T12:55:52.416Z,4.47
2023-05-20T12:58:19.202Z,4.40
2023-05-20T13:00:46.053Z,4.65
2023-05-20T13:03:12.767Z,4.72
2023-05-20T13:05:39.475Z,5.10
2023-05-20T13:08:06.333Z,5.40
2023-05-20T13:10:33.415Z,4.80
2023-05-20T13:13:00.333Z,4.75
2023-05-20T13:15:27.042Z,4.80
2023-05-20T13:17:54.435Z,4.78
2023-05-20T13:20:21.538Z,5.03
2023-05-20T13:22:50.115Z,4.72
2023-05-20T13:25:16.978Z,4.63
2023-05-20T13:27:43.869Z,4.95
2023-05-20T13:30:10.933Z,5.15
2023-05-20T13:32:37.945Z,4.57
2023-05-20T13:35:05.185Z,5.20
2023-05-20T13:37:31.962Z,5.07
2023-05-20T13:39:59.242Z,4.15
2023-05-20T13:42:26.019Z,4.53
2023-05-20T13:44:52.758Z,4.30
2023-05-20T13:47:19.474Z,4.53
2023-05-20T13:49:46.311Z,4.18
2023-05-20T13:52:13.351Z,4.60
2023-05-20T13:54:40.542Z,4.68
2023-05-20T13:57:08.037Z,4.32
2023-05-20T13:59:35.225Z,4.43
2023-05-20T14:02:02.747Z,4.53
2023-05-20T14:04:31.278Z,4.20
2023-05-20T14:06:59.285Z,4.20
2023-05-20T14:09:26.359Z,4.13
2023-05-20T14:11:53.372Z,4.45
2023-05-20T14:14:19.996Z,4.43
2023-05-20T14:16:48.204Z,4.82
2023-05-20T14:19:14.933Z,4.28
2023-05-20T14:21:41.682Z,4.43
2023-05-20T14:24:08.355Z,4.10
2023-05-20T14:26:35.693Z,4.47
2023-05-20T14:29:02.545Z,5.10
2023-05-20T14:31:29.247Z,4.63
2023-05-20T14:33:55.914Z,4.53
2023-05-20T14:36:22.619Z,4.55
2023-05-20T14:38:49.787Z,4.40
2023-05-20T14:41:16.600Z,4.47
2023-05-20T14:43:43.400Z,4.88
2023-05-20T14:46:10.577Z,4.55
2023-05-20T14:48:37.502Z,4.40
2023-05-20T14:51:04.250Z,4.75
2023-05-20T14:53:31.008Z,4.20
2023-05-20T14:55:57.813Z,4.63
2023-05-20T14:58:25.366Z,4.28
2023-05-20T15:00:55.243Z,4.63
2023-05-20T15:03:24.101Z,4.93
2023-05-20T15:05:50.957Z,5.20
2023-05-20T15:08:18.370Z,4.85
2023-05-20T15:10:45.401Z,5.15
2023-05-20T15:13:12.137Z,4.82
2023-05-20T15:15:38.858Z,5.15
2023-05-20T15:18:05.915Z,5.43
2023-05-20T15:20:32.550Z,5.22
2023-05-20T15:23:00.861Z,5.50
2023-05-20T15:25:27.719Z,4.88
2023-05-20T15:27:54.366Z,5.13
2023-05-20T15:30:22.813Z,5.78
2023-05-20T15:32:50.339Z,5.30
2023-05-20T15:35:17.171Z,5.70
2023-05-20T15:37:47.233Z,5.30
2023-05-20T15:42:42.771Z,5.18
2023-05-20T15:45:13.887Z,5.70
2023-05-20T15:47:43.221Z,5.43
2023-05-20T15:50:11.284Z,5.65
2023-05-20T15:52:38.592Z,5.10
2023-05-20T15:55:05.904Z,5.75
2023-05-20T15:57:32.569Z,5.68
2023-05-20T15:59:59.420Z,5.32
2023-05-20T16:02:26.665Z,5.32
2023-05-20T16:04:54.440Z,5.53
2023-05-20T16:07:21.272Z,5.90
2023-05-20T16:09:47.946Z,6.10
2023-05-20T16:12:16.818Z,5.75
2023-05-20T16:14:44.838Z,6.00
2023-05-20T16:17:12.740Z,5.88
2023-05-20T16:19:39.427Z,5.68
2023-05-20T16:22:06.148Z,5.53
2023-05-20T16:24:32.833Z,5.63
2023-05-20T16:27:00.945Z,5.88
2023-05-20T16:29:29.159Z,5.63
2023-05-20T16:31:56.796Z,5.80
2023-05-20T16:34:25.371Z,5.47
2023-05-20T16:36:53.196Z,5.22
2023-05-20T16:39:21.768Z,4.72
2023-05-20T16:41:49.659Z,6.28
2023-05-20T16:44:17.855Z,5.60
2023-05-20T16:46:46.793Z,5.32
2023-05-20T16:49:15.002Z,5.75
2023-05-20T16:51:43.197Z,5.75
2023-05-20T16:54:10.978Z,6.00
2023-05-20T16:56:38.754Z,6.22
2023-05-20T16:59:08.706Z,5.00
2023-05-20T17:01:36.809Z,5.60
2023-05-20T17:04:03.933Z,4.43
2023-05-20T17:06:34.000Z,5.10
2023-05-20T17:09:03.893Z,4.88
2023-05-20T17:11:30.831Z,4.43
2023-05-20T17:13:57.596Z,4.72
2023-05-20T17:16:24.527Z,4.32
2023-05-20T17:18:51.445Z,4.32
2023-05-20T17:21:20.888Z,4.70
2023-05-20T17:23:47.667Z,4.20
2023-05-20T17:26:15.071Z,4.28
2023-05-20T17:28:42.300Z,4.03
2023-05-20T17:31:09.759Z,4.10
2023-05-20T17:33:36.675Z,4.30
2023-05-20T17:36:03.498Z,3.40
2023-05-20T17:38:30.329Z,3.97
2023-05-20T17:40:57.881Z,4.38
2023-05-20T17:43:25.630Z,4.07
2023-05-20T17:45:52.353Z,3.83
2023-05-20T17:48:19.145Z,4.03
2023-05-20T17:50:45.870Z,3.95
2023-05-20T17:53:12.519Z,4.78
2023-05-20T17:55:39.755Z,4.53
2023-05-20T17:58:10.137Z,4.45
2023-05-20T18:00:42.178Z,4.45
2023-05-20T18:03:10.198Z,4.80
2023-05-20T18:05:37.064Z,4.25
2023-05-20T18:08:03.883Z,4.88
2023-05-20T18:10:30.656Z,4.72
2023-05-20T18:12:57.348Z,4.60
2023-05-20T18:15:24.036Z,4.82
2023-05-20T18:17:51.159Z,4.00
2023-05-20T18:20:18.050Z,4.50
2023-05-20T18:22:47.530Z,4.10
2023-05-20T18:25:14.981Z,4.63
2023-05-20T18:27:42.380Z,4.40
2023-05-20T18:30:10.078Z,4.93
2023-05-20T18:32:37.088Z,4.50
2023-05-20T18:35:03.917Z,5.38
2023-05-20T18:37:30.796Z,4.72
2023-05-20T18:39:58.808Z,4.50
2023-05-20T18:42:25.970Z,5.07
2023-05-20T18:44:53.132Z,5.15
2023-05-20T18:47:19.911Z,4.82
2023-05-20T18:49:46.652Z,4.78
2023-05-20T18:52:13.406Z,4.97
2023-05-20T18:54:40.325Z,5.15
2023-05-20T18:57:08.133Z,4.45
2023-05-20T18:59:34.913Z,4.70
2023-05-20T19:02:01.740Z,4.78
2023-05-20T19:04:28.440Z,4.85
2023-05-20T19:06:55.191Z,5.00
2023-05-20T19:09:21.908Z,4.88
2023-05-20T19:11:48.642Z,4.80
2023-05-20T19:14:15.502Z,4.90
2023-05-20T19:16:42.242Z,4.68
2023-05-20T19:19:09.065Z,4.85
2023-05-20T19:21:36.034Z,4.80
2023-05-20T19:24:02.666Z,5.15
2023-05-20T19:26:29.821Z,4.88
2023-05-20T19:28:56.721Z,5.88
2023-05-20T19:31:23.632Z,5.65
2023-05-20T19:33:51.662Z,5.63
2023-05-20T19:36:18.622Z,5.47
2023-05-20T19:38:45.397Z,5.05
2023-05-20T19:41:13.034Z,5.35
2023-05-20T19:43:40.599Z,5.88
2023-05-20T19:46:07.448Z,5.10
2023-05-20T19:48:34.216Z,5.68
2023-05-20T19:51:01.591Z,5.70
2023-05-20T19:53:28.320Z,4.82
2023-05-20T19:55:55.077Z,6.00
2023-05-20T19:58:22.484Z,6.13
2023-05-20T20:00:49.084Z,6.07
2023-05-20T20:03:15.960Z,6.47
2023-05-20T20:05:42.702Z,5.60
2023-05-20T20:08:09.501Z,6.18
2023-05-20T20:10:37.619Z,5.80
2023-05-20T20:13:04.721Z,6.35
2023-05-20T20:15:32.053Z,5.78
2023-05-20T20:17:59.351Z,5.95
2023-05-20T20:20:29.617Z,6.57
2023-05-20T20:22:57.562Z,6.75
2023-05-20T20:25:26.677Z,6.18
2023-05-20T20:27:53.302Z,5.70
2023-05-20T20:30:21.481Z,5.85
2023-05-20T20:32:48.394Z,6.18
2023-05-20T20:35:15.939Z,6.38
2023-05-20T20:37:44.662Z,6.00
2023-05-20T20:40:13.648Z,6.22
2023-05-20T20:42:42.003Z,6.70
2023-05-20T20:45:09.197Z,7.03
2023-05-20T20:47:38.610Z,6.93
2023-05-20T20:50:06.455Z,6.90
2023-05-20T20:52:33.406Z,6.78
2023-05-20T20:55:00.412Z,5.82
2023-05-20T20:57:27.065Z,6.53
2023-05-20T20:59:57.724Z,7.10
2023-05-20T21:04:51.645Z,6.57
2023-05-20T21:07:18.499Z,7.30
2023-05-20T21:09:45.751Z,6.80
2023-05-20T21:12:13.036Z,6.45
2023-05-20T21:14:39.671Z,7.30
2023-05-20T21:17:06.421Z,6.75
2023-05-20T21:19:33.201Z,6.72
2023-05-20T21:21:59.934Z,6.60
2023-05-20T21:24:26.600Z,7.10
2023-05-20T21:26:53.271Z,6.25
2023-05-20T21:29:19.879Z,7.40
2023-05-20T21:31:46.552Z,6.57
2023-05-20T21:34:13.898Z,7.18
2023-05-20T21:36:40.558Z,7.15
2023-05-20T21:39:07.245Z,7.47
2023-05-20T21:41:33.933Z,7.70
2023-05-20T21:44:00.584Z,7.65
2023-05-20T21:46:27.368Z,7.10
2023-05-20T21:48:54.308Z,7.43
2023-05-20T21:51:20.972Z,8.02
2023-05-20T21:53:47.752Z,7.50
2023-05-20T21:56:14.606Z,7.65
2023-05-20T21:58:41.849Z,7.22
2023-05-20T22:01:09.977Z,7.22
2023-05-20T22:03:37.196Z,7.97
2023-05-20T22:06:05.036Z,7.30
2023-05-20T22:08:33.833Z,8.10
2023-05-20T22:11:05.370Z,8.20
2023-05-20T22:13:33.737Z,7.50
2023-05-20T22:16:01.956Z,7.68
2023-05-20T22:18:29.346Z,8.00
2023-05-20T22:20:56.336Z,8.13
2023-05-20T22:23:22.943Z,9.05
2023-05-20T22:25:49.593Z,9.05
2023-05-20T22:28:16.831Z,8.23
2023-05-20T22:30:43.929Z,7.43
2023-05-20T22:33:11.918Z,8.10
2023-05-20T22:35:38.925Z,8.00
2023-05-20T22:38:06.473Z,8.50
2023-05-20T22:40:33.708Z,7.90
2023-05-20T22:43:00.432Z,8.10
2023-05-20T22:45:27.317Z,9.18
2023-05-20T22:47:54.330Z,8.80
2023-05-20T22:50:21.153Z,7.72
2023-05-20T22:52:47.999Z,8.50
2023-05-20T22:55:14.834Z,8.88
2023-05-20T22:57:41.460Z,8.18
2023-05-20T23:00:09.925Z,7.97
2023-05-20T23:02:36.629Z,8.50
2023-05-20T23:05:04.198Z,8.50
2023-05-20T23:07:31.278Z,8.43
2023-05-20T23:09:57.916Z,8.50
2023-05-20T23:12:24.545Z,7.93
2023-05-20T23:14:51.666Z,8.25
2023-05-20T23:17:18.357Z,9.13
2023-05-20T23:19:45.012Z,8.63
2023-05-20T23:22:11.908Z,8.30
2023-05-20T23:24:38.566Z,8.02
2023-05-20T23:27:06.265Z,7.90
2023-05-20T23:29:32.933Z,9.18
2023-05-20T23:31:59.590Z,8.52
2023-05-20T23:34:27.290Z,9.23
2023-05-20T23:36:54.088Z,8.90
2023-05-20T23:39:20.983Z,8.73
2023-05-20T23:41:47.672Z,8.75
2023-05-20T23:44:14.435Z,9.13
2023-05-20T23:46:41.811Z,9.10
2023-05-20T23:49:10.008Z,8.60
2023-05-20T23:51:36.726Z,8.88
2023-05-20T23:54:03.438Z,9.10
2023-05-20T23:56:30.227Z,8.90
2023-05-20T23:58:57.848Z,8.65
